sensor_id;sensor_type;location;lat;lon;timestamp;temperature;humidity
56478;DHT22;42382;53.210;5.772;2023-12-28T00:00:16;9.30;92.50
56478;DHT22;42382;53.210;5.772;2023-12-28T00:02:42;9.30;92.50
56478;DHT22;42382;53.210;5.772;2023-12-28T00:05:07;9.40;92.50
56478;DHT22;42382;53.210;5.772;2023-12-28T00:07:33;9.40;92.70
56478;DHT22;42382;53.210;5.772;2023-12-28T00:09:59;9.40;92.60
56478;DHT22;42382;53.210;5.772;2023-12-28T00:12:25;9.40;92.60
56478;DHT22;42382;53.210;5.772;2023-12-28T00:14:50;9.30;92.50
56478;DHT22;42382;53.210;5.772;2023-12-28T00:17:16;9.30;92.50
56478;DHT22;42382;53.210;5.772;2023-12-28T00:19:42;9.30;92.50
56478;DHT22;42382;53.210;5.772;2023-12-28T00:22:07;9.30;92.60
56478;DHT22;42382;53.210;5.772;2023-12-28T00:24:33;9.30;92.70
56478;DHT22;42382;53.210;5.772;2023-12-28T00:26:59;9.30;92.70
56478;DHT22;42382;53.210;5.772;2023-12-28T00:29:24;9.20;92.80
56478;DHT22;42382;53.210;5.772;2023-12-28T00:31:50;9.20;92.80
56478;DHT22;42382;53.210;5.772;2023-12-28T00:34:15;9.20;92.80
56478;DHT22;42382;53.210;5.772;2023-12-28T00:36:41;9.20;92.80
56478;DHT22;42382;53.210;5.772;2023-12-28T00:39:06;9.20;92.90
56478;DHT22;42382;53.210;5.772;2023-12-28T00:41:32;9.20;92.90
56478;DHT22;42382;53.210;5.772;2023-12-28T00:43:58;9.20;93.00
56478;DHT22;42382;53.210;5.772;2023-12-28T00:46:23;9.20;93.10
56478;DHT22;42382;53.210;5.772;2023-12-28T00:48:49;9.20;93.10
56478;DHT22;42382;53.210;5.772;2023-12-28T00:51:14;9.20;93.00
56478;DHT22;42382;53.210;5.772;2023-12-28T00:53:40;9.30;93.00
56478;DHT22;42382;53.210;5.772;2023-12-28T00:56:06;9.20;92.90
56478;DHT22;42382;53.210;5.772;2023-12-28T00:58:34;9.30;92.90
56478;DHT22;42382;53.210;5.772;2023-12-28T01:01:00;9.20;92.90
56478;DHT22;42382;53.210;5.772;2023-12-28T01:03:25;9.30;92.90
56478;DHT22;42382;53.210;5.772;2023-12-28T01:05:51;9.20;92.80
56478;DHT22;42382;53.210;5.772;2023-12-28T01:08:17;9.20;92.80
56478;DHT22;42382;53.210;5.772;2023-12-28T01:10:43;9.20;92.70
56478;DHT22;42382;53.210;5.772;2023-12-28T01:13:09;9.20;92.60
56478;DHT22;42382;53.210;5.772;2023-12-28T01:15:35;9.20;92.60
56478;DHT22;42382;53.210;5.772;2023-12-28T01:18:00;9.20;92.50
56478;DHT22;42382;53.210;5.772;2023-12-28T01:20:26;9.20;92.50
56478;DHT22;42382;53.210;5.772;2023-12-28T01:22:51;9.20;92.40
56478;DHT22;42382;53.210;5.772;2023-12-28T01:25:17;9.10;92.40
56478;DHT22;42382;53.210;5.772;2023-12-28T01:27:43;9.10;92.40
56478;DHT22;42382;53.210;5.772;2023-12-28T01:30:08;9.10;92.50
56478;DHT22;42382;53.210;5.772;2023-12-28T01:32:34;9.10;92.50
56478;DHT22;42382;53.210;5.772;2023-12-28T01:35:00;9.10;92.60
56478;DHT22;42382;53.210;5.772;2023-12-28T01:37:25;9.00;92.50
56478;DHT22;42382;53.210;5.772;2023-12-28T01:39:51;9.10;92.50
56478;DHT22;42382;53.210;5.772;2023-12-28T01:42:16;9.10;92.50
56478;DHT22;42382;53.210;5.772;2023-12-28T01:44:42;9.10;92.50
56478;DHT22;42382;53.210;5.772;2023-12-28T01:47:08;9.10;92.60
56478;DHT22;42382;53.210;5.772;2023-12-28T01:49:34;9.00;92.70
56478;DHT22;42382;53.210;5.772;2023-12-28T01:52:02;9.00;92.70
56478;DHT22;42382;53.210;5.772;2023-12-28T01:54:28;9.10;92.80
56478;DHT22;42382;53.210;5.772;2023-12-28T01:56:54;9.00;92.90
56478;DHT22;42382;53.210;5.772;2023-12-28T01:59:20;9.10;93.00
56478;DHT22;42382;53.210;5.772;2023-12-28T02:01:46;9.10;93.00
56478;DHT22;42382;53.210;5.772;2023-12-28T02:04:12;9.10;93.00
56478;DHT22;42382;53.210;5.772;2023-12-28T02:06:38;9.10;93.10
56478;DHT22;42382;53.210;5.772;2023-12-28T02:09:04;9.10;93.20
56478;DHT22;42382;53.210;5.772;2023-12-28T02:11:30;9.10;93.20
56478;DHT22;42382;53.210;5.772;2023-12-28T02:13:56;9.20;93.10
56478;DHT22;42382;53.210;5.772;2023-12-28T02:16:25;9.20;93.20
56478;DHT22;42382;53.210;5.772;2023-12-28T02:18:52;9.20;93.20
56478;DHT22;42382;53.210;5.772;2023-12-28T02:21:20;9.20;93.10
56478;DHT22;42382;53.210;5.772;2023-12-28T02:23:50;9.20;93.30
56478;DHT22;42382;53.210;5.772;2023-12-28T02:26:16;9.30;93.30
56478;DHT22;42382;53.210;5.772;2023-12-28T02:28:42;9.30;93.20
56478;DHT22;42382;53.210;5.772;2023-12-28T02:31:12;9.40;93.20
56478;DHT22;42382;53.210;5.772;2023-12-28T02:33:48;9.40;93.20
56478;DHT22;42382;53.210;5.772;2023-12-28T02:36:18;9.40;93.10
56478;DHT22;42382;53.210;5.772;2023-12-28T02:38:48;9.50;93.10
56478;DHT22;42382;53.210;5.772;2023-12-28T02:41:15;9.50;92.90
56478;DHT22;42382;53.210;5.772;2023-12-28T02:43:41;9.50;92.90
56478;DHT22;42382;53.210;5.772;2023-12-28T02:46:06;9.50;92.80
56478;DHT22;42382;53.210;5.772;2023-12-28T02:48:32;9.50;92.80
56478;DHT22;42382;53.210;5.772;2023-12-28T02:50:57;9.60;92.80
56478;DHT22;42382;53.210;5.772;2023-12-28T02:53:23;9.70;92.60
56478;DHT22;42382;53.210;5.772;2023-12-28T02:55:48;9.70;92.40
56478;DHT22;42382;53.210;5.772;2023-12-28T02:58:14;9.80;92.20
56478;DHT22;42382;53.210;5.772;2023-12-28T03:00:40;9.80;91.90
56478;DHT22;42382;53.210;5.772;2023-12-28T03:03:05;9.90;91.70
56478;DHT22;42382;53.210;5.772;2023-12-28T03:05:31;9.80;91.60
56478;DHT22;42382;53.210;5.772;2023-12-28T03:07:56;9.80;91.30
56478;DHT22;42382;53.210;5.772;2023-12-28T03:10:23;9.90;91.20
56478;DHT22;42382;53.210;5.772;2023-12-28T03:12:49;9.90;91.00
56478;DHT22;42382;53.210;5.772;2023-12-28T03:15:15;9.90;90.80
56478;DHT22;42382;53.210;5.772;2023-12-28T03:17:40;9.80;90.90
56478;DHT22;42382;53.210;5.772;2023-12-28T03:20:08;9.90;90.70
56478;DHT22;42382;53.210;5.772;2023-12-28T03:22:33;9.80;90.70
56478;DHT22;42382;53.210;5.772;2023-12-28T03:25:00;9.80;90.60
56478;DHT22;42382;53.210;5.772;2023-12-28T03:27:26;9.80;90.50
56478;DHT22;42382;53.210;5.772;2023-12-28T03:29:51;9.80;90.30
56478;DHT22;42382;53.210;5.772;2023-12-28T03:32:17;9.80;90.50
56478;DHT22;42382;53.210;5.772;2023-12-28T03:34:42;9.70;90.40
56478;DHT22;42382;53.210;5.772;2023-12-28T03:37:08;9.70;90.40
56478;DHT22;42382;53.210;5.772;2023-12-28T03:39:36;9.80;90.50
56478;DHT22;42382;53.210;5.772;2023-12-28T03:42:01;9.80;90.60
56478;DHT22;42382;53.210;5.772;2023-12-28T03:44:27;9.80;90.40
56478;DHT22;42382;53.210;5.772;2023-12-28T03:46:53;9.90;90.30
56478;DHT22;42382;53.210;5.772;2023-12-28T03:49:19;9.90;90.00
56478;DHT22;42382;53.210;5.772;2023-12-28T03:51:45;9.90;89.90
56478;DHT22;42382;53.210;5.772;2023-12-28T03:54:12;10.00;89.80
56478;DHT22;42382;53.210;5.772;2023-12-28T03:56:37;10.10;89.80
56478;DHT22;42382;53.210;5.772;2023-12-28T03:59:06;10.10;89.70
56478;DHT22;42382;53.210;5.772;2023-12-28T04:01:35;10.10;89.30
56478;DHT22;42382;53.210;5.772;2023-12-28T04:04:01;10.10;89.30
56478;DHT22;42382;53.210;5.772;2023-12-28T04:06:26;10.10;89.30
56478;DHT22;42382;53.210;5.772;2023-12-28T04:08:52;10.10;89.10
56478;DHT22;42382;53.210;5.772;2023-12-28T04:11:18;10.10;88.80
56478;DHT22;42382;53.210;5.772;2023-12-28T04:13:43;10.10;88.50
56478;DHT22;42382;53.210;5.772;2023-12-28T04:16:12;10.20;88.70
56478;DHT22;42382;53.210;5.772;2023-12-28T04:18:38;10.20;88.80
56478;DHT22;42382;53.210;5.772;2023-12-28T04:21:04;10.20;88.60
56478;DHT22;42382;53.210;5.772;2023-12-28T04:23:32;10.20;88.00
56478;DHT22;42382;53.210;5.772;2023-12-28T04:25:58;10.20;88.30
56478;DHT22;42382;53.210;5.772;2023-12-28T04:28:24;10.20;88.30
56478;DHT22;42382;53.210;5.772;2023-12-28T04:30:50;10.30;88.10
56478;DHT22;42382;53.210;5.772;2023-12-28T04:33:17;10.30;88.00
56478;DHT22;42382;53.210;5.772;2023-12-28T04:35:44;10.40;87.50
56478;DHT22;42382;53.210;5.772;2023-12-28T04:38:10;10.40;87.80
56478;DHT22;42382;53.210;5.772;2023-12-28T04:40:36;10.40;87.70
56478;DHT22;42382;53.210;5.772;2023-12-28T04:43:01;10.40;87.80
56478;DHT22;42382;53.210;5.772;2023-12-28T04:45:27;10.30;88.00
56478;DHT22;42382;53.210;5.772;2023-12-28T04:47:53;10.40;88.20
56478;DHT22;42382;53.210;5.772;2023-12-28T04:50:19;10.30;88.00
56478;DHT22;42382;53.210;5.772;2023-12-28T04:52:44;10.30;87.90
56478;DHT22;42382;53.210;5.772;2023-12-28T04:55:10;10.30;88.20
56478;DHT22;42382;53.210;5.772;2023-12-28T04:57:35;10.30;87.90
56478;DHT22;42382;53.210;5.772;2023-12-28T05:00:01;10.30;88.10
56478;DHT22;42382;53.210;5.772;2023-12-28T05:02:27;10.30;87.90
56478;DHT22;42382;53.210;5.772;2023-12-28T05:04:52;10.30;88.10
56478;DHT22;42382;53.210;5.772;2023-12-28T05:07:18;10.30;88.10
56478;DHT22;42382;53.210;5.772;2023-12-28T05:09:44;10.20;88.00
56478;DHT22;42382;53.210;5.772;2023-12-28T05:12:09;10.20;88.10
56478;DHT22;42382;53.210;5.772;2023-12-28T05:14:35;10.10;88.10
56478;DHT22;42382;53.210;5.772;2023-12-28T05:17:00;10.10;88.20
56478;DHT22;42382;53.210;5.772;2023-12-28T05:19:26;10.10;88.40
56478;DHT22;42382;53.210;5.772;2023-12-28T05:21:52;10.00;88.40
56478;DHT22;42382;53.210;5.772;2023-12-28T05:24:17;10.00;88.60
56478;DHT22;42382;53.210;5.772;2023-12-28T05:26:43;10.00;88.70
56478;DHT22;42382;53.210;5.772;2023-12-28T05:29:08;10.00;88.70
56478;DHT22;42382;53.210;5.772;2023-12-28T05:31:34;10.00;88.80
56478;DHT22;42382;53.210;5.772;2023-12-28T05:33:59;10.00;88.60
56478;DHT22;42382;53.210;5.772;2023-12-28T05:36:25;10.10;88.70
56478;DHT22;42382;53.210;5.772;2023-12-28T05:38:50;10.10;88.50
56478;DHT22;42382;53.210;5.772;2023-12-28T05:41:16;10.10;88.60
56478;DHT22;42382;53.210;5.772;2023-12-28T05:43:42;10.10;88.60
56478;DHT22;42382;53.210;5.772;2023-12-28T05:46:08;10.00;88.60
56478;DHT22;42382;53.210;5.772;2023-12-28T05:48:33;10.00;88.70
56478;DHT22;42382;53.210;5.772;2023-12-28T05:50:59;9.90;88.60
56478;DHT22;42382;53.210;5.772;2023-12-28T05:53:25;9.90;88.80
56478;DHT22;42382;53.210;5.772;2023-12-28T05:55:52;10.00;88.70
56478;DHT22;42382;53.210;5.772;2023-12-28T05:58:17;10.10;89.00
56478;DHT22;42382;53.210;5.772;2023-12-28T06:00:43;10.10;88.70
56478;DHT22;42382;53.210;5.772;2023-12-28T06:03:09;10.10;88.60
56478;DHT22;42382;53.210;5.772;2023-12-28T06:05:34;10.10;88.60
56478;DHT22;42382;53.210;5.772;2023-12-28T06:08:00;10.10;88.40
56478;DHT22;42382;53.210;5.772;2023-12-28T06:10:25;10.10;88.60
56478;DHT22;42382;53.210;5.772;2023-12-28T06:12:51;10.20;88.60
56478;DHT22;42382;53.210;5.772;2023-12-28T06:15:17;10.20;88.70
56478;DHT22;42382;53.210;5.772;2023-12-28T06:17:42;10.20;88.50
56478;DHT22;42382;53.210;5.772;2023-12-28T06:20:08;10.20;88.70
56478;DHT22;42382;53.210;5.772;2023-12-28T06:22:37;10.20;88.10
56478;DHT22;42382;53.210;5.772;2023-12-28T06:25:03;10.20;88.00
56478;DHT22;42382;53.210;5.772;2023-12-28T06:27:30;10.20;88.30
56478;DHT22;42382;53.210;5.772;2023-12-28T06:29:55;10.10;88.20
56478;DHT22;42382;53.210;5.772;2023-12-28T06:32:21;10.10;88.30
56478;DHT22;42382;53.210;5.772;2023-12-28T06:34:47;10.10;88.60
56478;DHT22;42382;53.210;5.772;2023-12-28T06:37:14;10.00;88.60
56478;DHT22;42382;53.210;5.772;2023-12-28T06:39:39;10.10;88.80
56478;DHT22;42382;53.210;5.772;2023-12-28T06:42:05;10.10;88.50
56478;DHT22;42382;53.210;5.772;2023-12-28T06:44:30;10.10;88.60
56478;DHT22;42382;53.210;5.772;2023-12-28T06:46:56;10.10;88.40
56478;DHT22;42382;53.210;5.772;2023-12-28T06:49:22;10.10;88.50
56478;DHT22;42382;53.210;5.772;2023-12-28T06:51:47;10.10;88.50
56478;DHT22;42382;53.210;5.772;2023-12-28T06:54:13;10.10;88.70
56478;DHT22;42382;53.210;5.772;2023-12-28T06:56:40;10.10;88.80
56478;DHT22;42382;53.210;5.772;2023-12-28T06:59:06;10.10;88.70
56478;DHT22;42382;53.210;5.772;2023-12-28T07:01:32;10.10;88.60
56478;DHT22;42382;53.210;5.772;2023-12-28T07:03:57;10.10;88.60
56478;DHT22;42382;53.210;5.772;2023-12-28T07:06:25;10.10;88.70
56478;DHT22;42382;53.210;5.772;2023-12-28T07:08:50;10.10;88.60
56478;DHT22;42382;53.210;5.772;2023-12-28T07:11:16;10.10;88.60
56478;DHT22;42382;53.210;5.772;2023-12-28T07:13:42;10.10;88.60
56478;DHT22;42382;53.210;5.772;2023-12-28T07:16:07;10.10;88.70
56478;DHT22;42382;53.210;5.772;2023-12-28T07:18:33;10.10;88.70
56478;DHT22;42382;53.210;5.772;2023-12-28T07:21:00;10.20;88.80
56478;DHT22;42382;53.210;5.772;2023-12-28T07:23:28;10.10;88.80
56478;DHT22;42382;53.210;5.772;2023-12-28T07:25:53;10.10;88.80
56478;DHT22;42382;53.210;5.772;2023-12-28T07:28:19;10.10;88.80
56478;DHT22;42382;53.210;5.772;2023-12-28T07:30:45;10.10;88.90
56478;DHT22;42382;53.210;5.772;2023-12-28T07:33:11;10.10;88.90
56478;DHT22;42382;53.210;5.772;2023-12-28T07:35:37;10.10;88.80
56478;DHT22;42382;53.210;5.772;2023-12-28T07:38:03;10.10;88.80
56478;DHT22;42382;53.210;5.772;2023-12-28T07:40:28;10.10;89.00
56478;DHT22;42382;53.210;5.772;2023-12-28T07:42:54;10.20;89.10
56478;DHT22;42382;53.210;5.772;2023-12-28T07:45:19;10.20;89.10
56478;DHT22;42382;53.210;5.772;2023-12-28T07:47:49;10.20;89.00
56478;DHT22;42382;53.210;5.772;2023-12-28T07:50:16;10.30;88.90
56478;DHT22;42382;53.210;5.772;2023-12-28T07:52:42;10.30;89.10
56478;DHT22;42382;53.210;5.772;2023-12-28T07:55:08;10.30;88.80
56478;DHT22;42382;53.210;5.772;2023-12-28T07:57:35;10.30;88.70
56478;DHT22;42382;53.210;5.772;2023-12-28T08:00:01;10.40;88.80
56478;DHT22;42382;53.210;5.772;2023-12-28T08:02:27;10.30;88.90
56478;DHT22;42382;53.210;5.772;2023-12-28T08:04:53;10.30;88.90
56478;DHT22;42382;53.210;5.772;2023-12-28T08:07:19;10.30;89.10
56478;DHT22;42382;53.210;5.772;2023-12-28T08:09:44;10.40;89.10
56478;DHT22;42382;53.210;5.772;2023-12-28T08:12:10;10.30;89.10
56478;DHT22;42382;53.210;5.772;2023-12-28T08:14:36;10.30;89.20
56478;DHT22;42382;53.210;5.772;2023-12-28T08:17:01;10.30;89.10
56478;DHT22;42382;53.210;5.772;2023-12-28T08:19:27;10.40;89.00
56478;DHT22;42382;53.210;5.772;2023-12-28T08:21:52;10.40;89.10
56478;DHT22;42382;53.210;5.772;2023-12-28T08:24:18;10.30;89.10
56478;DHT22;42382;53.210;5.772;2023-12-28T08:26:43;10.30;89.30
56478;DHT22;42382;53.210;5.772;2023-12-28T08:29:09;10.30;89.20
56478;DHT22;42382;53.210;5.772;2023-12-28T08:31:35;10.30;89.10
56478;DHT22;42382;53.210;5.772;2023-12-28T08:34:00;10.30;89.30
56478;DHT22;42382;53.210;5.772;2023-12-28T08:36:26;10.30;89.20
56478;DHT22;42382;53.210;5.772;2023-12-28T08:38:51;10.30;89.40
56478;DHT22;42382;53.210;5.772;2023-12-28T08:41:21;10.30;89.40
56478;DHT22;42382;53.210;5.772;2023-12-28T08:43:47;10.40;89.30
56478;DHT22;42382;53.210;5.772;2023-12-28T08:46:13;10.30;89.40
56478;DHT22;42382;53.210;5.772;2023-12-28T08:48:40;10.40;89.30
56478;DHT22;42382;53.210;5.772;2023-12-28T08:51:06;10.30;89.30
56478;DHT22;42382;53.210;5.772;2023-12-28T08:53:32;10.30;89.40
56478;DHT22;42382;53.210;5.772;2023-12-28T08:55:57;10.40;89.30
56478;DHT22;42382;53.210;5.772;2023-12-28T08:58:23;10.40;89.20
56478;DHT22;42382;53.210;5.772;2023-12-28T09:00:49;10.40;89.40
56478;DHT22;42382;53.210;5.772;2023-12-28T09:03:14;10.40;89.20
56478;DHT22;42382;53.210;5.772;2023-12-28T09:05:40;10.40;89.50
56478;DHT22;42382;53.210;5.772;2023-12-28T09:08:06;10.40;89.40
56478;DHT22;42382;53.210;5.772;2023-12-28T09:10:32;10.40;89.30
56478;DHT22;42382;53.210;5.772;2023-12-28T09:12:58;10.50;89.30
56478;DHT22;42382;53.210;5.772;2023-12-28T09:15:23;10.50;89.40
56478;DHT22;42382;53.210;5.772;2023-12-28T09:17:49;10.50;89.10
56478;DHT22;42382;53.210;5.772;2023-12-28T09:20:16;10.50;89.00
56478;DHT22;42382;53.210;5.772;2023-12-28T09:22:41;10.60;89.00
56478;DHT22;42382;53.210;5.772;2023-12-28T09:25:07;10.60;89.00
56478;DHT22;42382;53.210;5.772;2023-12-28T09:27:33;10.60;88.80
56478;DHT22;42382;53.210;5.772;2023-12-28T09:29:58;10.60;88.80
56478;DHT22;42382;53.210;5.772;2023-12-28T09:32:24;10.60;88.70
56478;DHT22;42382;53.210;5.772;2023-12-28T09:34:49;10.60;88.80
56478;DHT22;42382;53.210;5.772;2023-12-28T09:37:15;10.60;88.70
56478;DHT22;42382;53.210;5.772;2023-12-28T09:39:41;10.60;88.60
56478;DHT22;42382;53.210;5.772;2023-12-28T09:42:29;10.60;88.90
56478;DHT22;42382;53.210;5.772;2023-12-28T09:44:57;10.70;88.90
56478;DHT22;42382;53.210;5.772;2023-12-28T09:47:23;10.60;88.90
56478;DHT22;42382;53.210;5.772;2023-12-28T09:49:48;10.70;88.80
56478;DHT22;42382;53.210;5.772;2023-12-28T09:52:14;10.70;88.70
56478;DHT22;42382;53.210;5.772;2023-12-28T09:54:40;10.70;88.60
56478;DHT22;42382;53.210;5.772;2023-12-28T09:57:05;10.70;88.70
56478;DHT22;42382;53.210;5.772;2023-12-28T09:59:32;10.60;88.40
56478;DHT22;42382;53.210;5.772;2023-12-28T10:01:59;10.70;88.40
56478;DHT22;42382;53.210;5.772;2023-12-28T10:04:26;10.70;88.40
56478;DHT22;42382;53.210;5.772;2023-12-28T10:06:54;10.70;88.60
56478;DHT22;42382;53.210;5.772;2023-12-28T10:09:20;10.70;88.50
56478;DHT22;42382;53.210;5.772;2023-12-28T10:11:47;10.70;88.70
56478;DHT22;42382;53.210;5.772;2023-12-28T10:14:13;10.70;88.50
56478;DHT22;42382;53.210;5.772;2023-12-28T10:16:42;10.70;88.50
56478;DHT22;42382;53.210;5.772;2023-12-28T10:19:07;10.70;88.50
56478;DHT22;42382;53.210;5.772;2023-12-28T10:21:33;10.80;88.50
56478;DHT22;42382;53.210;5.772;2023-12-28T10:23:59;10.80;88.40
56478;DHT22;42382;53.210;5.772;2023-12-28T10:26:25;10.80;88.50
56478;DHT22;42382;53.210;5.772;2023-12-28T10:28:58;10.80;88.20
56478;DHT22;42382;53.210;5.772;2023-12-28T10:31:24;10.80;88.00
56478;DHT22;42382;53.210;5.772;2023-12-28T10:33:50;10.80;88.10
56478;DHT22;42382;53.210;5.772;2023-12-28T10:36:16;10.80;88.30
56478;DHT22;42382;53.210;5.772;2023-12-28T10:38:43;10.80;88.20
56478;DHT22;42382;53.210;5.772;2023-12-28T10:41:11;10.80;88.30
56478;DHT22;42382;53.210;5.772;2023-12-28T10:44:02;10.80;87.60
56478;DHT22;42382;53.210;5.772;2023-12-28T10:46:30;10.80;87.80
56478;DHT22;42382;53.210;5.772;2023-12-28T10:49:10;10.90;87.90
56478;DHT22;42382;53.210;5.772;2023-12-28T10:51:41;10.90;87.90
56478;DHT22;42382;53.210;5.772;2023-12-28T10:56:43;10.90;87.90
56478;DHT22;42382;53.210;5.772;2023-12-28T10:59:13;10.90;87.70
56478;DHT22;42382;53.210;5.772;2023-12-28T11:01:43;10.90;88.00
56478;DHT22;42382;53.210;5.772;2023-12-28T11:06:37;10.90;87.70
56478;DHT22;42382;53.210;5.772;2023-12-28T11:09:04;10.90;87.20
56478;DHT22;42382;53.210;5.772;2023-12-28T11:11:32;11.00;87.70
56478;DHT22;42382;53.210;5.772;2023-12-28T11:13:59;11.00;87.60
56478;DHT22;42382;53.210;5.772;2023-12-28T11:16:25;11.10;87.50
56478;DHT22;42382;53.210;5.772;2023-12-28T11:18:53;11.00;87.40
56478;DHT22;42382;53.210;5.772;2023-12-28T11:21:20;11.00;87.40
56478;DHT22;42382;53.210;5.772;2023-12-28T11:23:47;11.00;87.20
56478;DHT22;42382;53.210;5.772;2023-12-28T11:26:21;11.00;87.00
56478;DHT22;42382;53.210;5.772;2023-12-28T11:28:47;11.00;87.30
56478;DHT22;42382;53.210;5.772;2023-12-28T11:31:16;11.00;87.20
56478;DHT22;42382;53.210;5.772;2023-12-28T11:33:47;11.00;87.50
56478;DHT22;42382;53.210;5.772;2023-12-28T11:36:25;11.00;87.40
56478;DHT22;42382;53.210;5.772;2023-12-28T11:38:57;11.00;87.70
56478;DHT22;42382;53.210;5.772;2023-12-28T11:41:26;10.90;87.50
56478;DHT22;42382;53.210;5.772;2023-12-28T11:43:55;10.90;87.70
56478;DHT22;42382;53.210;5.772;2023-12-28T11:46:21;10.90;87.60
56478;DHT22;42382;53.210;5.772;2023-12-28T11:48:47;10.90;87.80
56478;DHT22;42382;53.210;5.772;2023-12-28T11:51:13;10.90;87.50
56478;DHT22;42382;53.210;5.772;2023-12-28T11:53:39;10.90;87.60
56478;DHT22;42382;53.210;5.772;2023-12-28T11:56:05;11.00;87.90
56478;DHT22;42382;53.210;5.772;2023-12-28T11:58:37;11.00;87.80
56478;DHT22;42382;53.210;5.772;2023-12-28T12:01:03;11.00;87.50
56478;DHT22;42382;53.210;5.772;2023-12-28T12:03:28;10.90;87.20
56478;DHT22;42382;53.210;5.772;2023-12-28T12:05:56;11.00;87.40
56478;DHT22;42382;53.210;5.772;2023-12-28T12:08:23;10.90;87.10
56478;DHT22;42382;53.210;5.772;2023-12-28T12:10:59;10.90;87.40
56478;DHT22;42382;53.210;5.772;2023-12-28T12:13:24;10.90;87.30
56478;DHT22;42382;53.210;5.772;2023-12-28T12:15:51;11.00;87.30
56478;DHT22;42382;53.210;5.772;2023-12-28T12:18:17;11.00;87.20
56478;DHT22;42382;53.210;5.772;2023-12-28T12:20:43;11.00;87.30
56478;DHT22;42382;53.210;5.772;2023-12-28T12:23:08;11.00;87.60
56478;DHT22;42382;53.210;5.772;2023-12-28T12:25:34;11.00;87.60
56478;DHT22;42382;53.210;5.772;2023-12-28T12:28:00;11.00;87.50
56478;DHT22;42382;53.210;5.772;2023-12-28T12:30:25;10.90;87.40
56478;DHT22;42382;53.210;5.772;2023-12-28T12:32:51;11.00;87.20
56478;DHT22;42382;53.210;5.772;2023-12-28T12:35:16;11.00;87.20
56478;DHT22;42382;53.210;5.772;2023-12-28T12:37:43;11.00;87.40
56478;DHT22;42382;53.210;5.772;2023-12-28T12:40:09;10.90;87.30
56478;DHT22;42382;53.210;5.772;2023-12-28T12:42:35;10.90;87.40
56478;DHT22;42382;53.210;5.772;2023-12-28T12:45:01;10.90;87.40
56478;DHT22;42382;53.210;5.772;2023-12-28T12:47:32;10.90;87.40
56478;DHT22;42382;53.210;5.772;2023-12-28T12:49:59;10.90;87.30
56478;DHT22;42382;53.210;5.772;2023-12-28T12:52:25;10.90;87.10
56478;DHT22;42382;53.210;5.772;2023-12-28T12:54:56;10.90;87.40
56478;DHT22;42382;53.210;5.772;2023-12-28T12:57:24;10.90;87.20
56478;DHT22;42382;53.210;5.772;2023-12-28T12:59:51;10.90;87.20
56478;DHT22;42382;53.210;5.772;2023-12-28T13:02:17;10.90;87.50
56478;DHT22;42382;53.210;5.772;2023-12-28T13:04:42;10.90;87.70
56478;DHT22;42382;53.210;5.772;2023-12-28T13:07:08;10.90;87.00
56478;DHT22;42382;53.210;5.772;2023-12-28T13:09:34;10.90;87.40
56478;DHT22;42382;53.210;5.772;2023-12-28T13:12:01;10.90;87.20
56478;DHT22;42382;53.210;5.772;2023-12-28T13:14:26;10.90;87.10
56478;DHT22;42382;53.210;5.772;2023-12-28T13:16:52;10.80;87.20
56478;DHT22;42382;53.210;5.772;2023-12-28T13:19:20;10.80;87.30
56478;DHT22;42382;53.210;5.772;2023-12-28T13:21:46;10.80;87.40
56478;DHT22;42382;53.210;5.772;2023-12-28T13:24:12;10.80;87.30
56478;DHT22;42382;53.210;5.772;2023-12-28T13:26:37;10.80;87.60
56478;DHT22;42382;53.210;5.772;2023-12-28T13:29:03;10.80;87.40
56478;DHT22;42382;53.210;5.772;2023-12-28T13:31:32;10.90;87.30
56478;DHT22;42382;53.210;5.772;2023-12-28T13:33:57;10.80;87.10
56478;DHT22;42382;53.210;5.772;2023-12-28T13:36:24;10.90;87.30
56478;DHT22;42382;53.210;5.772;2023-12-28T13:38:49;10.90;86.90
56478;DHT22;42382;53.210;5.772;2023-12-28T13:41:15;10.80;87.20
56478;DHT22;42382;53.210;5.772;2023-12-28T13:43:40;10.80;87.20
56478;DHT22;42382;53.210;5.772;2023-12-28T13:46:06;10.80;87.40
56478;DHT22;42382;53.210;5.772;2023-12-28T13:48:32;10.80;87.30
56478;DHT22;42382;53.210;5.772;2023-12-28T13:50:57;10.80;87.30
56478;DHT22;42382;53.210;5.772;2023-12-28T13:53:23;10.80;87.20
56478;DHT22;42382;53.210;5.772;2023-12-28T13:55:48;10.80;87.30
56478;DHT22;42382;53.210;5.772;2023-12-28T13:58:14;10.80;87.10
56478;DHT22;42382;53.210;5.772;2023-12-28T14:00:40;10.70;87.00
56478;DHT22;42382;53.210;5.772;2023-12-28T14:03:05;10.70;87.00
56478;DHT22;42382;53.210;5.772;2023-12-28T14:05:31;10.70;87.20
56478;DHT22;42382;53.210;5.772;2023-12-28T14:07:57;10.70;87.20
56478;DHT22;42382;53.210;5.772;2023-12-28T14:10:23;10.70;87.50
56478;DHT22;42382;53.210;5.772;2023-12-28T14:12:48;10.60;87.80
56478;DHT22;42382;53.210;5.772;2023-12-28T14:15:15;10.60;87.90
56478;DHT22;42382;53.210;5.772;2023-12-28T14:17:41;10.50;88.10
56478;DHT22;42382;53.210;5.772;2023-12-28T14:20:08;10.50;88.20
56478;DHT22;42382;53.210;5.772;2023-12-28T14:22:40;10.50;88.50
56478;DHT22;42382;53.210;5.772;2023-12-28T14:25:07;10.40;88.10
56478;DHT22;42382;53.210;5.772;2023-12-28T14:27:32;10.40;88.40
56478;DHT22;42382;53.210;5.772;2023-12-28T14:29:58;10.40;88.50
56478;DHT22;42382;53.210;5.772;2023-12-28T14:32:28;10.40;88.60
56478;DHT22;42382;53.210;5.772;2023-12-28T14:34:54;10.30;88.60
56478;DHT22;42382;53.210;5.772;2023-12-28T14:37:20;10.30;88.80
56478;DHT22;42382;53.210;5.772;2023-12-28T14:39:46;10.30;88.80
56478;DHT22;42382;53.210;5.772;2023-12-28T14:42:11;10.30;88.80
56478;DHT22;42382;53.210;5.772;2023-12-28T14:44:39;10.20;88.80
56478;DHT22;42382;53.210;5.772;2023-12-28T14:47:05;10.20;88.80
56478;DHT22;42382;53.210;5.772;2023-12-28T14:49:31;10.20;89.20
56478;DHT22;42382;53.210;5.772;2023-12-28T14:51:56;10.20;88.90
56478;DHT22;42382;53.210;5.772;2023-12-28T14:54:22;10.20;88.90
56478;DHT22;42382;53.210;5.772;2023-12-28T14:56:48;10.10;88.70
56478;DHT22;42382;53.210;5.772;2023-12-28T14:59:13;10.20;88.90
56478;DHT22;42382;53.210;5.772;2023-12-28T15:01:39;10.10;88.70
56478;DHT22;42382;53.210;5.772;2023-12-28T15:04:05;10.10;88.60
56478;DHT22;42382;53.210;5.772;2023-12-28T15:06:31;10.20;88.70
56478;DHT22;42382;53.210;5.772;2023-12-28T15:08:57;10.20;88.80
56478;DHT22;42382;53.210;5.772;2023-12-28T15:11:23;10.20;88.40
56478;DHT22;42382;53.210;5.772;2023-12-28T15:13:49;10.20;88.40
56478;DHT22;42382;53.210;5.772;2023-12-28T15:16:15;10.20;88.50
56478;DHT22;42382;53.210;5.772;2023-12-28T15:18:41;10.20;88.40
56478;DHT22;42382;53.210;5.772;2023-12-28T15:21:07;10.20;88.50
56478;DHT22;42382;53.210;5.772;2023-12-28T15:23:33;10.20;88.50
56478;DHT22;42382;53.210;5.772;2023-12-28T15:25:59;10.20;88.40
56478;DHT22;42382;53.210;5.772;2023-12-28T15:28:24;10.20;88.50
56478;DHT22;42382;53.210;5.772;2023-12-28T15:30:50;10.20;88.70
56478;DHT22;42382;53.210;5.772;2023-12-28T15:33:16;10.20;88.50